createdAt,value
2019-02-06T00:00:45.007Z,85.20
2019-02-06T00:03:33.649Z,60.63
2019-02-06T00:06:22.979Z,78.77
2019-02-06T00:09:14.214Z,64.83
2019-02-06T00:12:03.474Z,64.30
2019-02-06T00:14:52.386Z,75.30
2019-02-06T00:17:41.165Z,83.13
2019-02-06T00:20:29.672Z,63.33
2019-02-06T00:23:19.619Z,65.43
2019-02-06T00:26:08.643Z,67.33
2019-02-06T00:28:57.317Z,79.37
2019-02-06T00:31:46.186Z,61.70
2019-02-06T00:34:35.430Z,81.10
2019-02-06T00:37:24.334Z,60.23
2019-02-06T00:40:13.587Z,60.57
2019-02-06T00:43:02.551Z,56.30
2019-02-06T00:45:50.790Z,63.33
2019-02-06T00:48:41.710Z,56.13
2019-02-06T00:51:30.698Z,52.67
2019-02-06T00:54:21.057Z,57.30
2019-02-06T00:57:10.529Z,55.50
2019-02-06T00:59:59.837Z,56.13
2019-02-06T01:02:48.685Z,65.97
2019-02-06T01:05:38.928Z,91.20
2019-02-06T01:08:27.554Z,65.80
2019-02-06T01:11:15.704Z,52.30
2019-02-06T01:14:05.435Z,55.53
2019-02-06T01:16:54.097Z,73.17
2019-02-06T01:19:43.077Z,68.47
2019-02-06T01:22:32.038Z,64.80
2019-02-06T01:25:20.336Z,83.00
2019-02-06T01:28:09.077Z,59.10
2019-02-06T01:31:12.999Z,53.00
2019-02-06T01:34:01.345Z,59.47
2019-02-06T01:36:49.639Z,59.23
2019-02-06T01:39:37.987Z,57.53
2019-02-06T01:42:27.189Z,48.10
2019-02-06T01:45:17.707Z,48.23
2019-02-06T01:48:06.355Z,53.87
2019-02-06T01:50:55.446Z,52.23
2019-02-06T01:53:44.164Z,79.67
2019-02-06T01:56:33.528Z,112.80
2019-02-06T01:59:22.497Z,155.63
2019-02-06T02:02:10.830Z,78.37
2019-02-06T02:05:00.693Z,50.50
2019-02-06T02:07:50.956Z,78.20
2019-02-06T02:10:40.300Z,53.37
2019-02-06T02:13:28.453Z,54.00
2019-02-06T02:16:17.338Z,59.03
2019-02-06T02:19:06.148Z,54.03
2019-02-06T02:21:54.613Z,46.63
2019-02-06T02:24:43.928Z,49.23
2019-02-06T02:27:32.905Z,48.27
2019-02-06T02:30:28.517Z,46.37
2019-02-06T02:33:17.845Z,44.03
2019-02-06T02:36:16.048Z,50.17
2019-02-06T02:38:57.422Z,45.63
2019-02-06T02:41:46.532Z,57.00
2019-02-06T02:44:34.959Z,58.43
2019-02-06T02:47:23.651Z,48.33
2019-02-06T02:50:12.288Z,40.33
2019-02-06T02:53:00.701Z,53.73
2019-02-06T02:55:49.605Z,47.03
2019-02-06T02:58:38.449Z,41.43
2019-02-06T03:01:39.537Z,44.30
2019-02-06T03:04:31.129Z,54.30
2019-02-06T03:07:19.882Z,57.73
2019-02-06T03:10:09.594Z,52.40
2019-02-06T03:12:58.029Z,50.07
2019-02-06T03:15:47.667Z,49.30
2019-02-06T03:18:36.495Z,54.83
2019-02-06T03:21:26.440Z,65.00
2019-02-06T03:24:15.670Z,54.13
2019-02-06T03:27:04.778Z,82.53
2019-02-06T03:29:52.670Z,152.37
2019-02-06T03:32:41.637Z,52.67
2019-02-06T03:35:30.096Z,58.20
2019-02-06T03:38:18.867Z,106.03
2019-02-06T03:41:07.797Z,135.17
2019-02-06T03:43:56.628Z,120.23
2019-02-06T03:46:46.668Z,97.63
2019-02-06T03:49:35.959Z,119.80
2019-02-06T03:52:24.733Z,123.80
2019-02-06T03:55:14.213Z,41.90
2019-02-06T03:58:02.329Z,45.83
2019-02-06T04:00:51.305Z,69.57
2019-02-06T04:03:39.883Z,55.70
2019-02-06T04:06:28.606Z,63.37
2019-02-06T04:09:16.590Z,57.57
2019-02-06T04:12:06.626Z,95.77
2019-02-06T04:14:54.878Z,63.30
2019-02-06T04:17:43.823Z,60.70
2019-02-06T04:20:32.759Z,143.37
2019-02-06T04:23:21.775Z,52.53
2019-02-06T04:26:10.639Z,45.40
2019-02-06T04:28:59.628Z,67.70
2019-02-06T04:31:47.724Z,52.93
2019-02-06T04:34:53.656Z,48.87
2019-02-06T04:37:43.328Z,60.27
2019-02-06T04:40:33.016Z,46.57
2019-02-06T04:43:22.007Z,56.57
2019-02-06T04:46:10.875Z,53.73
2019-02-06T04:48:59.496Z,56.57
2019-02-06T04:51:48.435Z,45.50
2019-02-06T04:54:38.569Z,54.10
2019-02-06T04:57:27.210Z,47.73
2019-02-06T05:00:25.990Z,59.77
2019-02-06T05:03:15.107Z,49.67
2019-02-06T05:06:04.513Z,52.83
2019-02-06T05:08:54.546Z,49.80
2019-02-06T05:11:43.284Z,53.47
2019-02-06T05:14:32.165Z,50.80
2019-02-06T05:17:20.799Z,39.60
2019-02-06T05:20:31.284Z,47.70
2019-02-06T05:23:19.905Z,53.87
2019-02-06T05:26:08.185Z,47.77
2019-02-06T05:28:57.683Z,48.17
2019-02-06T05:31:51.930Z,45.23
2019-02-06T05:34:40.935Z,50.17
2019-02-06T05:37:32.304Z,44.63
2019-02-06T05:40:20.915Z,45.07
2019-02-06T05:43:10.838Z,45.37
2019-02-06T05:45:59.166Z,47.03
2019-02-06T05:48:50.646Z,48.90
2019-02-06T05:51:39.300Z,49.00
2019-02-06T05:54:28.511Z,48.13
2019-02-06T05:57:20.754Z,46.23
2019-02-06T06:00:13.070Z,47.17
2019-02-06T06:03:01.574Z,45.77
2019-02-06T06:05:50.326Z,43.70
2019-02-06T06:08:39.176Z,43.97
2019-02-06T06:11:27.946Z,43.10
2019-02-06T06:14:17.504Z,48.97
2019-02-06T06:17:06.707Z,44.53
2019-02-06T06:19:55.589Z,45.83
2019-02-06T06:22:45.502Z,46.10
2019-02-06T06:25:35.292Z,46.70
2019-02-06T06:28:26.007Z,45.57
2019-02-06T06:31:17.363Z,47.47
2019-02-06T06:34:05.372Z,48.30
2019-02-06T06:36:56.842Z,50.67
2019-02-06T06:39:46.643Z,48.57
2019-02-06T06:42:35.165Z,56.43
2019-02-06T06:45:24.193Z,56.07
2019-02-06T06:48:13.140Z,50.93
2019-02-06T06:51:02.826Z,50.50
2019-02-06T06:53:52.187Z,48.80
2019-02-06T06:56:41.166Z,49.17
2019-02-06T06:59:29.508Z,52.53
2019-02-06T07:02:18.535Z,55.70
2019-02-06T07:05:07.611Z,51.10
2019-02-06T07:08:09.050Z,50.23
2019-02-06T07:10:48.383Z,58.00
2019-02-06T07:13:37.902Z,60.33
2019-02-06T07:16:27.108Z,69.77
2019-02-06T07:19:15.754Z,59.03
2019-02-06T07:22:04.205Z,53.77
2019-02-06T07:24:53.110Z,57.33
2019-02-06T07:27:46.121Z,60.00
2019-02-06T07:30:36.831Z,55.80
2019-02-06T07:33:25.443Z,55.07
2019-02-06T07:36:14.751Z,56.60
2019-02-06T07:39:06.529Z,58.43
2019-02-06T07:41:55.410Z,58.30
2019-02-06T07:44:44.004Z,55.37
2019-02-06T07:47:33.121Z,54.53
2019-02-06T07:50:26.500Z,59.80
2019-02-06T07:53:16.395Z,56.90
2019-02-06T07:56:05.689Z,55.07
2019-02-06T07:58:53.851Z,54.23
2019-02-06T08:01:42.382Z,55.10
2019-02-06T08:04:31.017Z,57.53
2019-02-06T08:07:19.661Z,56.37
2019-02-06T08:10:11.814Z,61.50
2019-02-06T08:13:01.015Z,58.53
2019-02-06T08:15:50.947Z,56.93
2019-02-06T08:18:40.604Z,58.37
2019-02-06T08:21:29.731Z,55.23
2019-02-06T08:24:18.322Z,58.70
2019-02-06T08:27:07.187Z,56.83
2019-02-06T08:29:56.219Z,63.30
2019-02-06T08:32:44.131Z,53.97
2019-02-06T08:35:33.351Z,54.57
2019-02-06T08:38:22.125Z,53.33
2019-02-06T08:41:11.361Z,58.63
2019-02-06T08:44:01.880Z,51.43
2019-02-06T08:46:50.319Z,52.17
2019-02-06T08:49:40.049Z,58.73
2019-02-06T08:52:28.620Z,56.40
2019-02-06T08:55:19.977Z,54.73
2019-02-06T08:58:08.680Z,52.03
2019-02-06T09:00:57.014Z,54.23
2019-02-06T09:03:45.574Z,55.30
2019-02-06T09:06:34.548Z,55.13
2019-02-06T09:09:22.922Z,53.43
2019-02-06T09:12:12.333Z,53.07
2019-02-06T09:15:01.522Z,50.13
2019-02-06T09:17:49.689Z,53.53
2019-02-06T09:20:38.210Z,56.47
2019-02-06T09:23:28.240Z,55.10
2019-02-06T09:26:17.548Z,51.73
2019-02-06T09:29:06.819Z,58.13
2019-02-06T09:31:59.317Z,54.40
2019-02-06T09:34:47.277Z,51.23
2019-02-06T09:37:36.331Z,57.40
2019-02-06T09:40:26.790Z,57.63
2019-02-06T09:43:15.462Z,52.97
2019-02-06T09:46:04.212Z,53.43
2019-02-06T09:48:55.515Z,54.67
2019-02-06T09:51:46.902Z,51.43
2019-02-06T09:54:35.627Z,48.07
2019-02-06T09:57:24.489Z,48.70
2019-02-06T10:00:19.809Z,45.53
2019-02-06T10:03:10.730Z,40.90
2019-02-06T10:05:59.794Z,40.60
2019-02-06T10:08:48.061Z,37.20
2019-02-06T10:11:36.806Z,44.17
2019-02-06T10:14:25.628Z,53.27
2019-02-06T10:17:14.439Z,45.20
2019-02-06T10:20:03.632Z,42.00
2019-02-06T10:22:51.868Z,43.80
2019-02-06T10:25:40.124Z,39.33
2019-02-06T10:28:29.432Z,40.77
2019-02-06T10:31:18.939Z,46.60
2019-02-06T10:34:07.950Z,43.73
2019-02-06T10:36:56.525Z,44.87
2019-02-06T10:39:45.041Z,42.57
2019-02-06T10:42:34.064Z,45.17
2019-02-06T10:45:23.991Z,45.27
2019-02-06T10:48:13.920Z,42.60
2019-02-06T10:51:02.929Z,39.80
2019-02-06T10:53:52.318Z,40.47
2019-02-06T10:56:42.000Z,43.50
2019-02-06T10:59:30.541Z,47.47
2019-02-06T11:02:18.599Z,46.83
2019-02-06T11:05:07.348Z,44.07
2019-02-06T11:07:55.533Z,46.83
2019-02-06T11:10:43.962Z,46.47
2019-02-06T11:13:32.231Z,45.33
2019-02-06T11:16:20.490Z,43.97
2019-02-06T11:19:09.247Z,44.40
2019-02-06T11:21:58.165Z,43.07
2019-02-06T11:24:46.651Z,44.13
2019-02-06T11:27:36.167Z,45.97
2019-02-06T11:30:26.468Z,48.10
2019-02-06T11:33:15.482Z,43.90
2019-02-06T11:36:04.482Z,45.63
2019-02-06T11:38:54.662Z,47.03
2019-02-06T11:41:43.807Z,45.60
2019-02-06T11:44:32.702Z,45.47
2019-02-06T11:47:22.586Z,44.83
2019-02-06T11:50:14.861Z,45.80
2019-02-06T11:53:03.725Z,45.77
2019-02-06T11:55:53.938Z,44.43
2019-02-06T11:58:42.172Z,42.20
2019-02-06T12:01:34.931Z,48.30
2019-02-06T12:04:23.622Z,43.53
2019-02-06T12:07:11.989Z,41.90
2019-02-06T12:10:09.782Z,45.07
2019-02-06T12:12:56.142Z,45.63
2019-02-06T12:15:44.934Z,40.87
2019-02-06T12:18:35.729Z,48.87
2019-02-06T12:21:24.653Z,44.23
2019-02-06T12:24:13.175Z,44.93
2019-02-06T12:27:01.978Z,43.07
2019-02-06T12:29:50.504Z,41.70
2019-02-06T12:32:39.273Z,40.00
2019-02-06T12:35:27.840Z,39.07
2019-02-06T12:38:16.771Z,39.17
2019-02-06T12:41:06.119Z,44.07
2019-02-06T12:43:55.738Z,38.60
2019-02-06T12:46:43.958Z,42.63
2019-02-06T12:49:32.213Z,40.43
2019-02-06T12:52:20.456Z,44.77
2019-02-06T12:55:11.578Z,45.00
2019-02-06T12:58:00.628Z,47.07
2019-02-06T13:00:49.786Z,46.57
2019-02-06T13:03:38.955Z,50.23
2019-02-06T13:06:28.512Z,48.77
2019-02-06T13:09:16.813Z,54.67
2019-02-06T13:12:06.061Z,54.40
2019-02-06T13:14:55.276Z,55.37
2019-02-06T13:17:44.169Z,51.93
2019-02-06T13:20:33.575Z,50.97
2019-02-06T13:23:22.233Z,55.60
2019-02-06T13:26:10.621Z,51.93
2019-02-06T13:28:59.387Z,49.53
2019-02-06T13:31:48.307Z,53.47
2019-02-06T13:34:37.073Z,53.57
2019-02-06T13:37:26.192Z,49.73
2019-02-06T13:40:16.785Z,50.73
2019-02-06T13:43:05.899Z,51.47
2019-02-06T13:45:54.883Z,52.27
2019-02-06T13:48:43.847Z,54.00
2019-02-06T13:51:34.075Z,52.60
2019-02-06T13:54:22.932Z,47.47
2019-02-06T13:57:11.983Z,48.27
2019-02-06T14:00:01.228Z,46.30
2019-02-06T14:02:50.401Z,47.60
2019-02-06T14:05:39.487Z,49.67
2019-02-06T14:08:29.073Z,48.47
2019-02-06T14:11:18.446Z,47.40
2019-02-06T14:14:06.934Z,48.17
2019-02-06T14:16:56.152Z,54.07
2019-02-06T14:19:45.503Z,50.37
2019-02-06T14:22:33.828Z,54.00
2019-02-06T14:25:27.249Z,54.90
2019-02-06T14:28:50.023Z,64.97
2019-02-06T14:32:02.172Z,62.93
2019-02-06T14:35:24.877Z,60.83
2019-02-06T14:39:12.746Z,58.27
2019-02-06T14:42:44.956Z,59.70
2019-02-06T14:46:10.230Z,64.73
2019-02-06T14:49:13.540Z,65.23
2019-02-06T14:53:11.459Z,68.53
2019-02-06T14:56:23.688Z,70.47
2019-02-06T14:59:55.201Z,73.20
2019-02-06T15:03:08.516Z,70.73
2019-02-06T15:06:24.735Z,64.70
2019-02-06T15:09:47.731Z,61.13
2019-02-06T15:13:14.985Z,66.27
2019-02-06T15:16:26.648Z,69.17
2019-02-06T15:19:49.057Z,68.73
2019-02-06T15:23:05.254Z,68.27
2019-02-06T15:26:04.615Z,69.17
2019-02-06T15:29:30.633Z,72.27
2019-02-06T15:33:10.120Z,75.80
2019-02-06T15:36:20.628Z,74.10
2019-02-06T15:40:01.018Z,67.43
2019-02-06T15:43:35.491Z,72.37
2019-02-06T15:46:59.032Z,69.67
2019-02-06T15:49:55.270Z,73.67
2019-02-06T15:53:11.111Z,68.83
2019-02-06T15:56:31.441Z,69.77
2019-02-06T15:59:45.587Z,73.23
2019-02-06T16:02:54.662Z,73.33
2019-02-06T16:06:20.313Z,71.47
2019-02-06T16:09:54.689Z,69.00
2019-02-06T16:13:08.535Z,70.03
2019-02-06T16:16:33.240Z,67.10
2019-02-06T16:19:52.447Z,62.73
2019-02-06T16:23:30.908Z,54.30
2019-02-06T16:27:14.342Z,74.90
2019-02-06T16:30:17.509Z,77.63
2019-02-06T16:33:37.942Z,67.57
2019-02-06T16:36:43.857Z,81.57
2019-02-06T16:40:00.515Z,66.83
2019-02-06T16:43:46.043Z,62.90
2019-02-06T16:47:07.299Z,63.80
2019-02-06T16:50:40.221Z,63.60
2019-02-06T16:57:34.083Z,83.27
2019-02-06T17:01:03.834Z,71.60
2019-02-06T17:04:21.453Z,80.60
2019-02-06T17:08:19.081Z,77.17
2019-02-06T17:11:46.197Z,71.90
2019-02-06T17:15:02.701Z,81.23
2019-02-06T17:19:09.520Z,71.60
2019-02-06T17:22:44.577Z,72.27
2019-02-06T17:26:25.084Z,72.17
2019-02-06T17:29:56.916Z,76.53
2019-02-06T17:33:04.860Z,81.53
2019-02-06T17:36:24.019Z,92.37
2019-02-06T17:39:24.160Z,70.67
2019-02-06T17:42:41.331Z,74.30
2019-02-06T17:45:51.944Z,73.33
2019-02-06T17:49:11.936Z,71.03
2019-02-06T17:52:33.591Z,74.40
2019-02-06T17:55:26.019Z,88.17
2019-02-06T17:58:14.348Z,82.90
2019-02-06T18:01:10.896Z,90.33
2019-02-06T18:04:18.811Z,76.23
2019-02-06T18:07:07.688Z,68.93
2019-02-06T18:09:57.207Z,71.50
2019-02-06T18:12:46.480Z,69.00
2019-02-06T18:15:35.163Z,70.63
2019-02-06T18:18:24.249Z,66.27
2019-02-06T18:21:12.816Z,61.73
2019-02-06T18:24:01.980Z,74.53
2019-02-06T18:26:52.894Z,71.77
2019-02-06T18:29:42.355Z,65.70
2019-02-06T18:32:31.014Z,69.00
2019-02-06T18:35:21.101Z,77.17
2019-02-06T18:38:10.633Z,83.80
2019-02-06T18:40:59.308Z,85.97
2019-02-06T18:43:48.540Z,72.30
2019-02-06T18:46:36.873Z,85.90
2019-02-06T18:49:25.684Z,97.10
2019-02-06T18:52:20.518Z,69.07
2019-02-06T18:55:05.839Z,64.43
2019-02-06T18:57:55.014Z,73.63
2019-02-06T19:00:44.113Z,65.67
2019-02-06T19:03:39.201Z,69.03
2019-02-06T19:06:29.034Z,66.30
2019-02-06T19:09:18.346Z,64.83
2019-02-06T19:12:07.319Z,61.47
2019-02-06T19:14:58.779Z,67.13
2019-02-06T19:17:46.557Z,72.60
2019-02-06T19:20:35.763Z,72.67
2019-02-06T19:23:24.499Z,68.43
2019-02-06T19:26:14.042Z,73.43
2019-02-06T19:29:03.109Z,60.83
2019-02-06T19:31:51.315Z,115.17
2019-02-06T19:34:40.533Z,70.00
2019-02-06T19:37:29.256Z,57.97
2019-02-06T19:40:18.138Z,57.47
2019-02-06T19:43:11.792Z,60.30
2019-02-06T19:46:00.801Z,63.97
2019-02-06T19:48:55.491Z,68.23
2019-02-06T19:51:43.837Z,59.03
2019-02-06T19:54:32.777Z,63.70
2019-02-06T19:57:21.237Z,81.37
2019-02-06T20:00:12.354Z,61.87
2019-02-06T20:03:20.206Z,62.13
2019-02-06T20:06:28.506Z,56.70
2019-02-06T20:09:18.397Z,58.17
2019-02-06T20:12:08.511Z,55.97
2019-02-06T20:14:57.331Z,60.03
2019-02-06T20:17:46.826Z,60.43
2019-02-06T20:20:35.891Z,71.30
2019-02-06T20:23:24.783Z,76.97
2019-02-06T20:26:13.102Z,69.07
2019-02-06T20:29:03.145Z,58.70
2019-02-06T20:31:52.246Z,72.67
2019-02-06T20:34:41.432Z,68.80
2019-02-06T20:37:33.718Z,54.83
2019-02-06T20:40:29.175Z,57.97
2019-02-06T20:43:22.127Z,57.53
2019-02-06T20:46:09.264Z,57.20
2019-02-06T20:48:57.418Z,72.67
2019-02-06T20:51:45.759Z,60.13
2019-02-06T20:54:35.396Z,66.30
2019-02-06T20:57:24.273Z,64.70
2019-02-06T21:00:19.451Z,76.47
2019-02-06T21:03:07.800Z,70.03
2019-02-06T21:05:58.883Z,67.23
2019-02-06T21:08:48.018Z,64.30
2019-02-06T21:11:36.446Z,67.07
2019-02-06T21:14:24.982Z,69.87
2019-02-06T21:17:14.172Z,65.03
2019-02-06T21:20:03.654Z,66.60
2019-02-06T21:22:52.907Z,69.13
2019-02-06T21:25:46.921Z,72.33
2019-02-06T21:28:36.273Z,77.27
2019-02-06T21:31:25.006Z,66.87
2019-02-06T21:34:14.292Z,67.37
2019-02-06T21:37:03.771Z,76.73
2019-02-06T21:43:06.712Z,72.30
2019-02-06T21:45:55.756Z,73.60
2019-02-06T21:48:44.729Z,71.90
2019-02-06T21:51:33.334Z,68.63
2019-02-06T21:54:22.932Z,61.67
2019-02-06T21:57:11.803Z,50.90
2019-02-06T22:00:00.482Z,94.80
2019-02-06T22:02:49.165Z,71.30
2019-02-06T22:05:38.127Z,51.43
2019-02-06T22:08:26.721Z,48.10
2019-02-06T22:11:15.020Z,64.10
2019-02-06T22:14:03.850Z,52.90
2019-02-06T22:16:52.502Z,50.10
2019-02-06T22:19:40.626Z,53.60
2019-02-06T22:22:30.877Z,66.63
2019-02-06T22:25:20.797Z,54.77
2019-02-06T22:28:10.474Z,64.20
2019-02-06T22:31:00.725Z,60.60
2019-02-06T22:33:51.028Z,56.90
2019-02-06T22:36:40.802Z,55.37
2019-02-06T22:39:30.320Z,99.37
2019-02-06T22:42:19.869Z,70.00
2019-02-06T22:45:30.731Z,61.70
2019-02-06T22:48:22.261Z,79.90
2019-02-06T22:51:12.212Z,59.57
2019-02-06T22:54:01.887Z,70.80
2019-02-06T22:56:51.667Z,58.10
2019-02-06T23:02:51.124Z,56.93
2019-02-06T23:05:40.917Z,66.33
2019-02-06T23:08:30.796Z,77.67
2019-02-06T23:11:23.112Z,62.67
2019-02-06T23:14:18.039Z,60.23
2019-02-06T23:17:05.620Z,65.67
2019-02-06T23:19:55.146Z,60.83
2019-02-06T23:22:45.309Z,61.93
2019-02-06T23:25:34.825Z,58.07
2019-02-06T23:28:25.097Z,88.03
2019-02-06T23:31:14.954Z,58.10
2019-02-06T23:34:05.421Z,62.07
2019-02-06T23:36:55.485Z,60.27
2019-02-06T23:39:45.628Z,62.37
2019-02-06T23:42:35.695Z,72.77
2019-02-06T23:45:25.224Z,93.33
2019-02-06T23:48:15.692Z,56.87
2019-02-06T23:51:45.088Z,59.63
2019-02-06T23:54:35.085Z,62.27
2019-02-06T23:57:24.911Z,58.10
